Time;durP1;ratioP1;P1;durP2;ratioP2;P2;SDS_P1;SDS_P2;PMS_P1;PMS_P2;Temp;Humidity;BMP_temperature;BMP_pressure;BME280_temperature;BME280_humidity;BME280_pressure;Samples;Min_cycle;Max_cycle;Signal;HPM_P1;HPM_P2
2024/01/23 04:54:56;;;;;;;;;;;1.80;99.90;;;;;;5033806;28;19925;-75
2024/01/23 04:57:24;;;;;;;;;;;1.70;99.90;;;;;;5037529;28;19925;-75
2024/01/23 04:59:51;;;;;;;;;;;1.70;99.90;;;;;;5037696;28;19925;-76
2024/01/23 05:02:18;;;;;;;;;;;1.70;99.90;;;;;;5037568;28;19933;-75
2024/01/23 05:04:45;;;;;;;;;;;1.80;99.90;;;;;;5037536;28;19925;-70
2024/01/23 05:07:12;;;;;;;;;;;1.80;99.90;;;;;;5060839;22;20016;-75
2024/01/23 05:09:38;;;;;;;;;;;1.90;99.90;;;;;;5037698;28;19925;-76
2024/01/23 05:12:07;;;;;;;;;;;1.90;99.90;;;;;;5037291;28;19932;-78
2024/01/23 05:14:33;;;;;;;;;;;1.90;99.90;;;;;;5037879;28;19929;-74
2024/01/23 05:17:00;;;;;;;;;;;1.90;99.90;;;;;;5037266;28;20400;-73
2024/01/23 05:19:26;;;;;;;;;;;1.90;99.90;;;;;;5037340;28;19925;-75
2024/01/23 05:21:53;;;;;;;;;;;1.80;99.90;;;;;;5037382;28;19932;-75
2024/01/23 05:24:19;;;;;;;;;;;1.70;99.90;;;;;;5037293;28;19933;-75
2024/01/23 05:26:46;;;;;;;;;;;1.70;99.90;;;;;;5037184;28;19925;-75
2024/01/23 05:29:14;;;;;;;;;;;1.60;99.90;;;;;;5037217;28;19925;-75
2024/01/23 05:31:40;;;;;;;;;;;1.60;99.90;;;;;;5037330;28;19925;-75
2024/01/23 05:34:07;;;;;;;;;;;1.60;99.90;;;;;;5037424;28;19925;-75
2024/01/23 05:36:33;;;;;;;;;;;1.60;99.90;;;;;;5037118;28;19929;-75
2024/01/23 05:39:00;;;;;;;;;;;1.60;99.90;;;;;;5036722;28;19979;-73
2024/01/23 05:41:26;;;;;;;;;;;1.60;99.90;;;;;;5036921;28;19925;-72
2024/01/23 05:43:55;;;;;;;;;;;1.60;99.90;;;;;;5036904;28;19925;-72
2024/01/23 05:46:23;;;;;;;;;;;1.60;99.90;;;;;;5036916;28;19972;-73
2024/01/23 05:48:49;;;;;;;;;;;1.70;99.90;;;;;;5036815;28;19933;-74
2024/01/23 05:51:16;;;;;;;;;;;1.80;99.90;;;;;;5036913;28;19925;-73
2024/01/23 05:53:42;;;;;;;;;;;1.90;99.90;;;;;;5036552;28;19925;-74
2024/01/23 05:56:09;;;;;;;;;;;2.00;99.90;;;;;;5037270;28;19925;-74
2024/01/23 05:58:35;;;;;;;;;;;2.00;99.90;;;;;;5057981;28;19929;-73
2024/01/23 06:01:02;;;;;;;;;;;2.10;99.90;;;;;;5057441;28;19929;-72
2024/01/23 06:03:30;;;;;;;;;;;2.10;99.90;;;;;;5046546;28;19925;-72
2024/01/23 06:05:56;;;;;;;;;;;2.10;99.90;;;;;;5036519;28;19925;-72
2024/01/23 06:08:23;;;;;;;;;;;2.20;99.90;;;;;;5036012;28;19925;-73
2024/01/23 06:10:49;;;;;;;;;;;2.20;99.90;;;;;;5038689;28;20275;-73
2024/01/23 06:13:17;;;;;;;;;;;2.20;99.90;;;;;;5037811;28;19932;-71
2024/01/23 06:15:44;;;;;;;;;;;2.20;99.90;;;;;;5036474;28;19929;-71
2024/01/23 06:18:11;;;;;;;;;;;2.20;99.90;;;;;;5035962;28;19931;-72
2024/01/23 06:20:39;;;;;;;;;;;1.80;99.90;;;;;;5036214;28;19972;-72
2024/01/23 06:23:05;;;;;;;;;;;2.20;99.90;;;;;;5035829;28;19934;-72
2024/01/23 06:25:32;;;;;;;;;;;2.10;99.90;;;;;;5035730;28;20405;-72
2024/01/23 06:27:59;;;;;;;;;;;2.00;99.90;;;;;;5035949;28;19925;-75
2024/01/23 06:30:25;;;;;;;;;;;2.00;99.90;;;;;;5035992;28;19925;-72
2024/01/23 06:32:52;;;;;;;;;;;2.00;99.90;;;;;;5035759;28;19929;-72
2024/01/23 06:35:18;;;;;;;;;;;2.00;99.90;;;;;;5035749;28;19944;-72
2024/01/23 06:37:46;;;;;;;;;;;2.10;99.90;;;;;;5035710;28;19929;-72
2024/01/23 06:40:13;;;;;;;;;;;2.20;99.90;;;;;;5035787;28;19932;-72
2024/01/23 06:42:40;;;;;;;;;;;2.30;99.90;;;;;;5035713;28;19925;-72
2024/01/23 06:45:07;;;;;;;;;;;2.30;99.90;;;;;;5036465;28;19933;-72
2024/01/23 06:47:33;;;;;;;;;;;2.40;99.90;;;;;;5035191;28;20338;-72
2024/01/23 06:50:00;;;;;;;;;;;2.40;99.90;;;;;;5035848;28;20344;-73
2024/01/23 06:52:26;;;;;;;;;;;2.50;99.90;;;;;;5035167;28;19932;-73
2024/01/23 06:54:54;;;;;;;;;;;2.50;99.90;;;;;;5035332;28;19925;-73
2024/01/23 06:57:21;;;;;;;;;;;2.60;99.90;;;;;;5036186;28;19925;-73
2024/01/23 06:59:47;;;;;;;;;;;2.60;99.90;;;;;;5035389;28;19934;-73
2024/01/23 07:02:14;;;;;;;;;;;2.60;99.90;;;;;;5035790;28;20280;-73
2024/01/23 07:04:41;;;;;;;;;;;2.70;99.90;;;;;;5035058;28;20397;-73
2024/01/23 07:07:08;;;;;;;;;;;2.70;99.90;;;;;;5035272;28;19980;-73
2024/01/23 07:09:35;;;;;;;;;;;2.80;99.90;;;;;;5035217;28;19935;-73
2024/01/23 07:12:03;;;;;;;;;;;2.80;99.90;;;;;;5035175;28;19975;-73
2024/01/23 07:14:30;;;;;;;;;;;2.90;99.90;;;;;;5034414;28;19929;-73
2024/01/23 07:16:56;;;;;;;;;;;3.00;99.90;;;;;;5035102;28;19948;-73
2024/01/23 07:19:23;;;;;;;;;;;3.10;99.90;;;;;;5034957;28;19928;-73
2024/01/23 07:21:49;;;;;;;;;;;3.10;99.90;;;;;;5034765;28;20299;-73
2024/01/23 07:24:17;;;;;;;;;;;3.20;99.90;;;;;;5034958;28;19932;-73
2024/01/23 07:26:43;;;;;;;;;;;3.20;99.90;;;;;;5034874;28;19931;-73
2024/01/23 07:29:11;;;;;;;;;;;3.30;99.90;;;;;;5034776;28;19932;-73
2024/01/23 07:31:39;;;;;;;;;;;3.30;99.90;;;;;;5034902;28;19948;-73
2024/01/23 07:34:07;;;;;;;;;;;3.40;99.90;;;;;;5035343;28;19925;-73
2024/01/23 07:36:33;;;;;;;;;;;3.40;99.90;;;;;;5034474;28;20395;-73
2024/01/23 07:39:00;;;;;;;;;;;3.50;99.90;;;;;;5034218;28;19932;-73
2024/01/23 07:41:26;;;;;;;;;;;3.50;99.90;;;;;;5034342;28;19932;-72
2024/01/23 07:43:53;;;;;;;;;;;3.50;99.90;;;;;;5034223;28;20362;-72
2024/01/23 07:46:22;;;;;;;;;;;3.60;99.90;;;;;;5034475;28;19932;-72
2024/01/23 07:48:49;;;;;;;;;;;3.70;99.90;;;;;;5034087;28;20405;-72
2024/01/23 07:51:15;;;;;;;;;;;3.80;99.90;;;;;;5034599;28;19925;-75
2024/01/23 07:53:43;;;;;;;;;;;4.20;99.90;;;;;;5034530;28;19948;-73
2024/01/23 07:56:10;;;;;;;;;;;4.70;99.90;;;;;;5034423;28;19925;-73
2024/01/23 07:58:36;;;;;;;;;;;5.30;99.90;;;;;;5034069;28;19925;-73
2024/01/23 08:01:03;;;;;;;;;;;6.10;99.90;;;;;;5034120;28;20394;-73
2024/01/23 08:03:31;;;;;;;;;;;6.80;99.90;;;;;;5034474;28;19925;-73
2024/01/23 08:05:59;;;;;;;;;;;7.50;99.90;;;;;;5034240;28;19931;-73
2024/01/23 08:08:25;;;;;;;;;;;8.00;99.90;;;;;;5033961;28;19975;-73
2024/01/23 08:10:52;;;;;;;;;;;8.60;99.90;;;;;;5034982;28;19968;-73
2024/01/23 08:13:20;;;;;;;;;;;9.10;99.90;;;;;;5034207;28;20386;-73
2024/01/23 08:15:47;;;;;;;;;;;9.40;99.90;;;;;;5034538;28;19932;-73
2024/01/23 08:18:13;;;;;;;;;;;9.10;99.90;;;;;;5034556;28;20007;-73
2024/01/23 08:20:41;;;;;;;;;;;8.60;99.90;;;;;;5034076;28;19925;-73
2024/01/23 08:23:08;;;;;;;;;;;8.10;99.90;;;;;;5034045;28;19925;-73
2024/01/23 08:25:35;;;;;;;;;;;7.70;99.90;;;;;;5033881;28;19932;-73
2024/01/23 08:28:02;;;;;;;;;;;7.50;99.90;;;;;;5032956;28;20429;-73
2024/01/23 08:30:28;;;;;;;;;;;7.10;99.90;;;;;;5033883;28;19925;-73
2024/01/23 08:32:55;;;;;;;;;;;6.90;99.90;;;;;;5033919;28;19929;-73
2024/01/23 08:35:21;;;;;;;;;;;6.70;99.90;;;;;;5033430;28;20371;-73
2024/01/23 08:37:49;;;;;;;;;;;6.50;99.90;;;;;;5033501;28;20382;-73
2024/01/23 08:40:16;;;;;;;;;;;6.30;99.90;;;;;;5033901;28;19925;-73
2024/01/23 08:42:42;;;;;;;;;;;6.10;99.90;;;;;;5033777;28;20031;-73
2024/01/23 08:45:09;;;;;;;;;;;5.80;99.90;;;;;;5033813;28;19932;-73
2024/01/23 08:47:36;;;;;;;;;;;5.60;99.90;;;;;;5033886;28;19952;-74
2024/01/23 08:50:03;;;;;;;;;;;5.40;99.90;;;;;;5034293;28;19925;-74
2024/01/23 08:52:30;;;;;;;;;;;5.20;99.90;;;;;;5034437;28;19925;-74
2024/01/23 08:54:58;;;;;;;;;;;5.00;99.90;;;;;;5034194;28;19932;-74
2024/01/23 08:57:24;;;;;;;;;;;4.90;99.90;;;;;;5034156;28;19929;-74
2024/01/23 08:59:51;;;;;;;;;;;5.00;99.90;;;;;;5034462;28;19925;-74
2024/01/23 09:02:17;;;;;;;;;;;5.20;99.90;;;;;;5034121;28;20035;-74
2024/01/23 09:04:44;;;;;;;;;;;5.20;99.90;;;;;;5033830;28;19948;-74
2024/01/23 09:07:10;;;;;;;;;;;5.20;99.90;;;;;;5033527;28;20421;-74
2024/01/23 09:09:37;;;;;;;;;;;5.30;99.90;;;;;;5033701;28;19925;-74
2024/01/23 09:12:06;;;;;;;;;;;5.40;99.90;;;;;;5033936;28;19929;-74
2024/01/23 09:14:33;;;;;;;;;;;5.90;99.90;;;;;;5033937;28;20504;-74
2024/01/23 09:17:00;;;;;;;;;;;6.20;99.90;;;;;;5039239;28;19925;-74
2024/01/23 09:19:26;;;;;;;;;;;6.30;99.90;;;;;;5047646;28;19925;-73
2024/01/23 09:21:54;;;;;;;;;;;6.30;99.90;;;;;;5047851;28;19951;-73
2024/01/23 09:24:20;;;;;;;;;;;6.20;99.90;;;;;;5036394;28;19932;-73
2024/01/23 09:26:47;;;;;;;;;;;6.10;99.90;;;;;;5034077;28;19932;-73
2024/01/23 09:29:15;;;;;;;;;;;6.00;99.90;;;;;;5033660;28;19929;-73
2024/01/23 09:31:45;;;;;;;;;;;5.90;99.90;;;;;;5033927;28;20264;-73
2024/01/23 09:34:11;;;;;;;;;;;6.00;99.90;;;;;;5033626;28;19960;-74
2024/01/23 09:36:38;;;;;;;;;;;6.10;99.90;;;;;;5033387;28;19932;-74
2024/01/23 09:39:04;;;;;;;;;;;6.20;99.90;;;;;;5036991;28;19932;-75
2024/01/23 09:41:34;;;;;;;;;;;6.20;99.90;;;;;;5037229;28;19925;-74
2024/01/23 09:44:00;;;;;;;;;;;6.20;99.90;;;;;;5037182;28;19925;-75
2024/01/23 09:46:29;;;;;;;;;;;6.10;99.90;;;;;;5036943;28;19925;-74
2024/01/23 09:48:56;;;;;;;;;;;6.00;99.90;;;;;;5037022;28;19925;-74
2024/01/23 09:51:24;;;;;;;;;;;6.10;99.90;;;;;;5036966;28;19936;-74
2024/01/23 09:53:50;;;;;;;;;;;6.60;99.90;;;;;;5036722;28;19933;-74
2024/01/23 09:56:17;;;;;;;;;;;7.30;99.90;;;;;;5036564;28;19972;-74
2024/01/23 09:58:44;;;;;;;;;;;7.80;99.90;;;;;;5036771;28;19925;-74
2024/01/23 10:01:11;;;;;;;;;;;8.20;99.90;;;;;;5036628;28;19932;-74
2024/01/23 10:03:48;;;;;;;;;;;8.60;99.90;;;;;;5036604;28;19925;-74
2024/01/23 10:06:14;;;;;;;;;;;8.70;99.90;;;;;;5037910;28;19925;-74
2024/01/23 10:08:41;;;;;;;;;;;8.70;99.90;;;;;;5039584;28;19925;-74
2024/01/23 10:11:10;;;;;;;;;;;8.50;99.90;;;;;;5040261;28;19925;-74
2024/01/23 10:13:37;;;;;;;;;;;8.30;99.90;;;;;;5039767;28;20378;-74
2024/01/23 10:16:05;;;;;;;;;;;8.10;99.90;;;;;;5039944;28;19932;-74
2024/01/23 10:18:32;;;;;;;;;;;7.90;99.90;;;;;;5039703;28;19933;-74
2024/01/23 10:21:00;;;;;;;;;;;7.80;99.90;;;;;;5039869;28;19979;-74
2024/01/23 10:23:27;;;;;;;;;;;7.80;99.90;;;;;;5039720;28;19929;-74
2024/01/23 10:25:54;;;;;;;;;;;7.60;99.90;;;;;;5039001;28;20310;-72
2024/01/23 10:28:22;;;;;;;;;;;7.40;99.90;;;;;;5038849;28;19925;-73
2024/01/23 10:30:49;;;;;;;;;;;7.10;99.90;;;;;;5038586;28;19932;-73
2024/01/23 10:33:16;;;;;;;;;;;7.00;99.90;;;;;;5038775;28;19979;-73
2024/01/23 10:35:43;;;;;;;;;;;6.80;99.90;;;;;;5037102;28;19925;-72
2024/01/23 10:38:13;;;;;;;;;;;6.70;99.90;;;;;;5035851;28;19929;-73
2024/01/23 10:40:39;;;;;;;;;;;6.70;99.90;;;;;;5035601;28;20375;-73
2024/01/23 10:43:07;;;;;;;;;;;6.80;99.90;;;;;;5035521;28;20396;-73
2024/01/23 10:45:35;;;;;;;;;;;7.00;99.90;;;;;;5035799;28;20271;-73
2024/01/23 10:48:02;;;;;;;;;;;7.10;99.90;;;;;;5035500;28;19932;-73
2024/01/23 10:50:29;;;;;;;;;;;7.10;99.90;;;;;;5035649;28;19925;-73
2024/01/23 10:53:01;;;;;;;;;;;7.20;99.90;;;;;;5035754;28;19967;-73
2024/01/23 10:55:30;;;;;;;;;;;7.30;99.90;;;;;;5035518;28;20393;-75
2024/01/23 10:57:57;;;;;;;;;;;7.30;99.90;;;;;;5035664;28;19992;-75
2024/01/23 11:00:23;;;;;;;;;;;7.20;99.90;;;;;;5035770;28;19964;-75
2024/01/23 11:02:53;;;;;;;;;;;7.10;99.90;;;;;;5035979;28;19940;-75
2024/01/23 11:05:20;;;;;;;;;;;7.10;99.90;;;;;;5035470;28;20298;-75
2024/01/23 11:07:50;;;;;;;;;;;7.10;99.90;;;;;;5035489;28;19932;-75
2024/01/23 11:10:24;;;;;;;;;;;7.00;99.90;;;;;;5035081;28;20386;-75
2024/01/23 11:12:58;;;;;;;;;;;6.90;99.90;;;;;;5058351;23;19972;-77
2024/01/23 11:15:25;;;;;;;;;;;6.90;99.90;;;;;;5035198;28;19928;-76
2024/01/23 11:17:52;;;;;;;;;;;6.80;99.90;;;;;;5035274;28;19929;-76
2024/01/23 11:20:19;;;;;;;;;;;6.80;99.90;;;;;;5035366;28;19925;-76
2024/01/23 11:22:46;;;;;;;;;;;6.80;99.90;;;;;;5034833;28;20405;-76
2024/01/23 11:25:16;;;;;;;;;;;6.90;99.90;;;;;;5034667;28;20301;-74
2024/01/23 11:27:47;;;;;;;;;;;7.00;99.90;;;;;;5035065;28;19932;-74
2024/01/23 11:30:15;;;;;;;;;;;7.10;99.90;;;;;;5034962;28;20015;-74
2024/01/23 11:32:41;;;;;;;;;;;7.10;99.90;;;;;;5034882;28;19932;-75
2024/01/23 11:35:11;;;;;;;;;;;7.10;99.90;;;;;;5034865;28;19932;-75
2024/01/23 11:37:50;;;;;;;;;;;7.10;99.90;;;;;;5034728;28;19929;-75
2024/01/23 11:40:33;;;;;;;;;;;7.00;99.90;;;;;;5034728;28;20035;-74
2024/01/23 11:43:00;;;;;;;;;;;6.90;99.90;;;;;;5034645;28;19968;-75
2024/01/23 11:45:28;;;;;;;;;;;6.80;99.90;;;;;;5034638;28;19932;-75
2024/01/23 11:47:56;;;;;;;;;;;6.60;99.90;;;;;;5034634;28;19925;-75
2024/01/23 11:50:23;;;;;;;;;;;6.50;99.90;;;;;;5034648;28;19925;-74
2024/01/23 11:52:51;;;;;;;;;;;6.40;99.90;;;;;;5034659;28;19925;-74
2024/01/23 11:55:18;;;;;;;;;;;6.30;99.90;;;;;;5035861;28;19925;-74
2024/01/23 11:57:45;;;;;;;;;;;6.30;99.90;;;;;;5035363;28;19932;-76
2024/01/23 12:00:13;;;;;;;;;;;6.20;99.90;;;;;;5035263;28;19936;-76
2024/01/23 12:02:41;;;;;;;;;;;6.20;99.90;;;;;;5036272;28;20294;-77
2024/01/23 12:05:08;;;;;;;;;;;6.20;99.90;;;;;;5036248;28;19926;-77
2024/01/23 12:07:37;;;;;;;;;;;6.10;99.90;;;;;;5035867;28;20329;-77
2024/01/23 12:10:04;;;;;;;;;;;6.10;99.90;;;;;;5036006;28;20300;-77
2024/01/23 12:12:31;;;;;;;;;;;6.10;99.90;;;;;;5035666;28;19925;-77
2024/01/23 12:14:58;;;;;;;;;;;6.20;99.90;;;;;;5035930;28;19925;-77
2024/01/23 12:17:25;;;;;;;;;;;6.30;99.90;;;;;;5035171;28;19925;-77
2024/01/23 12:19:53;;;;;;;;;;;6.30;99.90;;;;;;5035884;28;20011;-73
2024/01/23 12:22:20;;;;;;;;;;;6.40;99.90;;;;;;5035697;28;19931;-73
2024/01/23 12:24:47;;;;;;;;;;;6.40;99.90;;;;;;5036142;28;20016;-73
2024/01/23 12:27:14;;;;;;;;;;;6.40;99.90;;;;;;5035519;28;19956;-73
2024/01/23 12:29:41;;;;;;;;;;;6.30;99.90;;;;;;5035332;28;19925;-73
2024/01/23 12:32:10;;;;;;;;;;;6.20;99.90;;;;;;5035334;28;19926;-74
2024/01/23 12:34:36;;;;;;;;;;;6.20;99.90;;;;;;5034475;28;19936;-74
2024/01/23 12:37:04;;;;;;;;;;;6.20;99.90;;;;;;5035404;28;19937;-75
2024/01/23 12:39:31;;;;;;;;;;;6.20;99.90;;;;;;5036215;28;19976;-74
2024/01/23 12:41:58;;;;;;;;;;;6.20;99.90;;;;;;5036124;28;19976;-75
2024/01/23 12:44:25;;;;;;;;;;;6.20;99.90;;;;;;5035951;28;20000;-75
2024/01/23 12:46:52;;;;;;;;;;;6.20;99.90;;;;;;5036454;28;20345;-75
2024/01/23 12:49:20;;;;;;;;;;;6.20;99.90;;;;;;5036203;28;19929;-75
2024/01/23 12:51:48;;;;;;;;;;;6.20;99.90;;;;;;5035394;28;19948;-75
2024/01/23 12:54:16;;;;;;;;;;;6.20;99.90;;;;;;5034167;28;19928;-75
2024/01/23 12:56:42;;;;;;;;;;;6.10;99.90;;;;;;5034076;28;20275;-75
2024/01/23 12:59:09;;;;;;;;;;;6.10;99.90;;;;;;5034201;28;19932;-74
2024/01/23 13:01:35;;;;;;;;;;;6.10;99.90;;;;;;5034239;28;19932;-74
2024/01/23 13:04:02;;;;;;;;;;;6.10;99.90;;;;;;5033799;28;19933;-74
2024/01/23 13:06:29;;;;;;;;;;;6.10;99.90;;;;;;5033389;28;20024;-74
2024/01/23 13:08:55;;;;;;;;;;;6.10;99.90;;;;;;5033979;28;19926;-74
2024/01/23 13:11:24;;;;;;;;;;;6.00;99.90;;;;;;5033790;28;19931;-74
2024/01/23 13:13:50;;;;;;;;;;;6.10;99.90;;;;;;5035907;28;19925;-74
2024/01/23 13:16:17;;;;;;;;;;;5.90;99.90;;;;;;5037557;28;19972;-74
2024/01/23 13:18:45;;;;;;;;;;;6.00;99.90;;;;;;5037408;28;19925;-74
2024/01/23 13:21:12;;;;;;;;;;;5.90;99.90;;;;;;5037473;28;19925;-74
2024/01/23 13:23:38;;;;;;;;;;;5.90;99.90;;;;;;5037028;28;20382;-75
2024/01/23 13:26:05;;;;;;;;;;;5.80;99.90;;;;;;5037332;28;19929;-74
2024/01/23 13:28:33;;;;;;;;;;;5.80;99.90;;;;;;5037264;28;19925;-73
2024/01/23 13:31:04;;;;;;;;;;;5.80;99.90;;;;;;5037198;28;19929;-73
2024/01/23 13:33:31;;;;;;;;;;;5.70;99.90;;;;;;5037106;28;19947;-74
2024/01/23 13:35:58;;;;;;;;;;;5.90;99.90;;;;;;5037165;28;20012;-73
2024/01/23 13:38:25;;;;;;;;;;;5.70;99.90;;;;;;5037003;28;19936;-73
2024/01/23 13:40:51;;;;;;;;;;;5.70;99.90;;;;;;5037056;28;19964;-74
2024/01/23 13:43:18;;;;;;;;;;;5.60;99.90;;;;;;5036934;28;19932;-74
2024/01/23 13:45:45;;;;;;;;;;;5.60;99.90;;;;;;5036974;28;19932;-73
2024/01/23 13:48:13;;;;;;;;;;;5.60;99.90;;;;;;5036972;28;19932;-74
2024/01/23 13:50:40;;;;;;;;;;;5.60;99.90;;;;;;5037049;28;19979;-73
2024/01/23 13:53:07;;;;;;;;;;;5.60;99.90;;;;;;5036892;28;19925;-74
2024/01/23 13:55:41;;;;;;;;;;;5.60;99.90;;;;;;5036953;28;20310;-74
2024/01/23 13:58:09;;;;;;;;;;;5.70;99.90;;;;;;5036651;28;19932;-74
2024/01/23 14:00:37;;;;;;;;;;;5.70;99.90;;;;;;5037812;28;19999;-74
2024/01/23 14:03:09;;;;;;;;;;;5.70;99.90;;;;;;5037217;28;20004;-74
2024/01/23 14:05:36;;;;;;;;;;;5.70;99.90;;;;;;5036899;28;20371;-75
2024/01/23 14:08:02;;;;;;;;;;;5.60;99.90;;;;;;5038126;28;19932;-75
2024/01/23 14:10:29;;;;;;;;;;;5.60;99.90;;;;;;5037320;28;19932;-75
2024/01/23 14:12:55;;;;;;;;;;;5.60;99.90;;;;;;5036654;28;19929;-72
2024/01/23 14:15:22;;;;;;;;;;;5.60;99.90;;;;;;5036483;28;19948;-74
2024/01/23 14:17:50;;;;;;;;;;;5.60;99.90;;;;;;5036605;28;20275;-74
2024/01/23 14:20:18;;;;;;;;;;;5.60;99.90;;;;;;5036410;28;19925;-74
2024/01/23 14:22:48;;;;;;;;;;;5.60;99.90;;;;;;5036068;28;19979;-74
2024/01/23 14:25:20;;;;;;;;;;;5.50;99.90;;;;;;5036234;28;19928;-74
2024/01/23 14:27:48;;;;;;;;;;;5.50;99.90;;;;;;5034624;28;19925;-74
2024/01/23 14:30:16;;;;;;;;;;;5.50;99.90;;;;;;5035387;28;20339;-74
2024/01/23 14:32:43;;;;;;;;;;;5.40;99.90;;;;;;5035669;28;19929;-73
2024/01/23 14:35:10;;;;;;;;;;;5.40;99.90;;;;;;5035956;28;19925;-72
2024/01/23 14:37:39;;;;;;;;;;;5.40;99.90;;;;;;5035948;28;19929;-72
2024/01/23 14:40:07;;;;;;;;;;;5.30;99.90;;;;;;5036221;28;19933;-73
2024/01/23 14:42:33;;;;;;;;;;;5.30;99.90;;;;;;5035839;28;19931;-73
2024/01/23 14:45:00;;;;;;;;;;;5.30;99.90;;;;;;5035627;28;20386;-73
2024/01/23 14:47:27;;;;;;;;;;;5.20;99.90;;;;;;5036197;28;19931;-73
2024/01/23 14:49:53;;;;;;;;;;;5.20;99.90;;;;;;5036161;28;19932;-74
2024/01/23 14:52:21;;;;;;;;;;;5.20;99.90;;;;;;5036129;28;19932;-74
2024/01/23 14:54:50;;;;;;;;;;;5.20;99.90;;;;;;5036608;28;19925;-73
2024/01/23 14:57:17;;;;;;;;;;;5.10;99.90;;;;;;5036182;28;19931;-73
2024/01/23 14:59:44;;;;;;;;;;;5.10;99.90;;;;;;5035986;28;19925;-72
2024/01/23 15:02:11;;;;;;;;;;;5.10;99.90;;;;;;5036869;28;19971;-73
2024/01/23 15:04:38;;;;;;;;;;;5.40;99.90;;;;;;5040610;28;19965;-72
2024/01/23 15:07:05;;;;;;;;;;;5.00;99.90;;;;;;5053749;28;19929;-72
2024/01/23 15:09:32;;;;;;;;;;;5.00;99.90;;;;;;5054355;28;19931;-71
2024/01/23 15:12:00;;;;;;;;;;;5.00;99.90;;;;;;5042411;28;19925;-71
2024/01/23 15:14:27;;;;;;;;;;;4.90;99.90;;;;;;5035445;28;20275;-72
2024/01/23 15:16:54;;;;;;;;;;;5.00;99.90;;;;;;5034821;28;20413;-74
2024/01/23 15:19:21;;;;;;;;;;;5.10;99.90;;;;;;5034858;28;20382;-74
2024/01/23 15:21:47;;;;;;;;;;;5.00;99.90;;;;;;5034889;28;20420;-73
2024/01/23 15:24:14;;;;;;;;;;;4.90;99.90;;;;;;5035260;28;19932;-73
2024/01/23 15:26:40;;;;;;;;;;;5.30;99.90;;;;;;5035386;28;19951;-73
2024/01/23 15:29:08;;;;;;;;;;;4.90;99.90;;;;;;5035163;28;19925;-73
2024/01/23 15:31:35;;;;;;;;;;;4.80;99.90;;;;;;5035185;28;19925;-73
2024/01/23 15:34:01;;;;;;;;;;;4.80;99.90;;;;;;5034858;28;19925;-73
2024/01/23 15:36:28;;;;;;;;;;;4.80;99.90;;;;;;5034522;28;19925;-73
2024/01/23 15:38:54;;;;;;;;;;;4.70;99.90;;;;;;5034910;28;19925;-73
2024/01/23 15:41:21;;;;;;;;;;;4.70;99.90;;;;;;5035095;28;19925;-73
2024/01/23 15:43:47;;;;;;;;;;;4.70;99.90;;;;;;5035007;28;20294;-73
2024/01/23 15:46:15;;;;;;;;;;;4.60;99.90;;;;;;5034488;28;20405;-73
2024/01/23 15:48:42;;;;;;;;;;;4.60;99.90;;;;;;5034469;28;20409;-73
2024/01/23 15:51:08;;;;;;;;;;;4.50;99.90;;;;;;5034743;28;19971;-73
2024/01/23 15:53:35;;;;;;;;;;;4.40;99.90;;;;;;5034766;28;19932;-73
2024/01/23 15:56:01;;;;;;;;;;;4.40;99.90;;;;;;5034584;28;19932;-74
2024/01/23 15:58:28;;;;;;;;;;;4.30;99.90;;;;;;5034540;28;19936;-72
2024/01/23 16:00:55;;;;;;;;;;;4.30;99.90;;;;;;5034428;28;20275;-73
2024/01/23 16:03:22;;;;;;;;;;;4.20;99.90;;;;;;5034442;28;19925;-72
2024/01/23 16:05:49;;;;;;;;;;;4.20;99.90;;;;;;5034537;28;19925;-73
2024/01/23 16:08:16;;;;;;;;;;;4.10;99.90;;;;;;5034390;28;20270;-73
2024/01/23 16:10:42;;;;;;;;;;;4.10;99.90;;;;;;5034211;28;19925;-72
2024/01/23 16:13:09;;;;;;;;;;;4.10;99.90;;;;;;5033990;28;19925;-73
2024/01/23 16:15:35;;;;;;;;;;;4.00;99.90;;;;;;5034413;28;19925;-74
2024/01/23 16:18:02;;;;;;;;;;;4.00;99.90;;;;;;5034345;28;19925;-74
2024/01/23 16:20:30;;;;;;;;;;;3.90;99.90;;;;;;5034331;28;19932;-73
2024/01/23 16:22:56;;;;;;;;;;;3.90;99.90;;;;;;5034234;28;19932;-75
2024/01/23 16:25:23;;;;;;;;;;;3.80;99.90;;;;;;5034178;28;19925;-75
2024/01/23 16:27:49;;;;;;;;;;;3.80;99.90;;;;;;5034167;28;19925;-75
2024/01/23 16:30:16;;;;;;;;;;;3.80;99.90;;;;;;5034302;28;19975;-74
2024/01/23 16:32:43;;;;;;;;;;;3.80;99.90;;;;;;5034272;28;19932;-74
2024/01/23 16:35:09;;;;;;;;;;;3.70;99.90;;;;;;5034050;28;19932;-74
2024/01/23 16:37:38;;;;;;;;;;;3.70;99.90;;;;;;5034291;28;19968;-74
2024/01/23 16:40:06;;;;;;;;;;;3.70;99.90;;;;;;5034030;28;19932;-74
2024/01/23 16:42:33;;;;;;;;;;;3.60;99.90;;;;;;5033955;28;19929;-74
2024/01/23 16:45:00;;;;;;;;;;;3.60;99.90;;;;;;5034200;28;19948;-74
2024/01/23 16:47:26;;;;;;;;;;;3.60;99.90;;;;;;5034421;28;19983;-74
2024/01/23 16:49:53;;;;;;;;;;;3.60;99.90;;;;;;5039048;28;19925;-75
2024/01/23 16:52:20;;;;;;;;;;;3.60;99.90;;;;;;5038872;28;19925;-72
2024/01/23 16:54:47;;;;;;;;;;;3.60;99.90;;;;;;5037580;28;19929;-72
2024/01/23 16:57:14;;;;;;;;;;;3.60;99.90;;;;;;5037904;28;19925;-72
2024/01/23 16:59:41;;;;;;;;;;;3.60;99.90;;;;;;5037523;28;20331;-72
2024/01/23 17:02:08;;;;;;;;;;;3.60;99.90;;;;;;5037742;28;19932;-72
2024/01/23 17:04:36;;;;;;;;;;;3.50;99.90;;;;;;5038311;28;19925;-72
2024/01/23 17:07:03;;;;;;;;;;;3.50;99.90;;;;;;5037375;28;19975;-72
2024/01/23 17:09:30;;;;;;;;;;;3.50;99.90;;;;;;5037622;28;19979;-72
2024/01/23 17:11:57;;;;;;;;;;;3.50;99.90;;;;;;5037074;28;20366;-73
2024/01/23 17:14:26;;;;;;;;;;;3.50;99.90;;;;;;5037561;28;20337;-73
2024/01/23 17:16:52;;;;;;;;;;;3.50;99.90;;;;;;5037410;28;19925;-73
2024/01/23 17:19:19;;;;;;;;;;;3.50;99.90;;;;;;5037049;28;20331;-73
2024/01/23 17:21:48;;;;;;;;;;;3.50;99.90;;;;;;5037377;28;19925;-74
2024/01/23 17:24:15;;;;;;;;;;;3.50;99.90;;;;;;5037478;28;19925;-73
2024/01/23 17:26:41;;;;;;;;;;;3.50;99.90;;;;;;5037502;28;19926;-74
2024/01/23 17:29:10;;;;;;;;;;;3.50;99.90;;;;;;5037612;28;19932;-74
2024/01/23 17:31:36;;;;;;;;;;;3.40;99.90;;;;;;5037293;28;19925;-72
2024/01/23 17:34:05;;;;;;;;;;;3.40;99.90;;;;;;5037144;28;19925;-72
2024/01/23 17:36:31;;;;;;;;;;;3.40;99.90;;;;;;5037302;28;19925;-73
2024/01/23 17:38:58;;;;;;;;;;;3.40;99.90;;;;;;5037013;28;19936;-72
2024/01/23 17:41:25;;;;;;;;;;;3.40;99.90;;;;;;5036857;28;19932;-72
2024/01/23 17:43:52;;;;;;;;;;;3.50;99.90;;;;;;5036968;28;19926;-72
2024/01/23 17:46:20;;;;;;;;;;;3.50;99.90;;;;;;5036870;28;19971;-72
2024/01/23 17:48:46;;;;;;;;;;;3.50;99.90;;;;;;5036934;28;19932;-73
2024/01/23 17:51:13;;;;;;;;;;;3.50;99.90;;;;;;5036820;28;19948;-72
2024/01/23 17:53:39;;;;;;;;;;;3.50;99.90;;;;;;5037085;28;19925;-74
2024/01/23 17:56:06;;;;;;;;;;;3.50;99.90;;;;;;5037221;28;19925;-73
2024/01/23 17:58:33;;;;;;;;;;;3.50;99.90;;;;;;5036750;28;19925;-74
2024/01/23 18:01:01;;;;;;;;;;;3.50;99.90;;;;;;5037291;28;19925;-73
2024/01/23 18:03:29;;;;;;;;;;;3.50;99.90;;;;;;5036879;28;20311;-73
2024/01/23 18:05:55;;;;;;;;;;;3.50;99.90;;;;;;5036837;28;20394;-73
2024/01/23 18:08:22;;;;;;;;;;;3.50;99.90;;;;;;5036694;28;20402;-72
2024/01/23 18:10:48;;;;;;;;;;;3.60;99.90;;;;;;5036444;28;20398;-72
2024/01/23 18:13:15;;;;;;;;;;;3.60;99.90;;;;;;5036683;28;19925;-72
2024/01/23 18:15:42;;;;;;;;;;;3.70;99.90;;;;;;5037342;28;19991;-73
2024/01/23 18:18:08;;;;;;;;;;;3.70;99.90;;;;;;5037132;28;20413;-73
2024/01/23 18:20:36;;;;;;;;;;;3.80;99.90;;;;;;5037756;28;20280;-73
2024/01/23 18:23:03;;;;;;;;;;;3.90;99.90;;;;;;5039255;28;20295;-72
2024/01/23 18:25:29;;;;;;;;;;;4.10;99.90;;;;;;5039624;28;19932;-72
2024/01/23 18:27:56;;;;;;;;;;;4.10;99.90;;;;;;5038014;28;19925;-73
2024/01/23 18:30:22;;;;;;;;;;;4.30;99.90;;;;;;5037117;28;20039;-72
2024/01/23 18:32:49;;;;;;;;;;;4.30;99.90;;;;;;5037116;28;20298;-72
2024/01/23 18:35:15;;;;;;;;;;;4.40;99.90;;;;;;5036773;28;20394;-73
2024/01/23 18:37:43;;;;;;;;;;;4.40;99.90;;;;;;5036881;28;19925;-73
2024/01/23 18:40:10;;;;;;;;;;;4.40;99.90;;;;;;5037499;28;19932;-73
2024/01/23 18:42:37;;;;;;;;;;;4.40;99.90;;;;;;5037128;28;20348;-73
2024/01/23 18:45:03;;;;;;;;;;;4.40;99.90;;;;;;5036896;28;20302;-73
2024/01/23 18:47:30;;;;;;;;;;;4.40;99.90;;;;;;5036874;28;19932;-72
2024/01/23 18:49:57;;;;;;;;;;;4.40;99.90;;;;;;5036463;28;19934;-72
2024/01/23 18:52:24;;;;;;;;;;;4.50;99.90;;;;;;5036999;28;19932;-72
2024/01/23 18:54:52;;;;;;;;;;;4.50;99.90;;;;;;5037065;28;19932;-73
2024/01/23 18:57:18;;;;;;;;;;;4.50;99.90;;;;;;5037849;28;19935;-73
2024/01/23 18:59:45;;;;;;;;;;;4.50;99.90;;;;;;5037013;28;19932;-73
2024/01/23 19:02:11;;;;;;;;;;;4.50;99.90;;;;;;5037462;28;19925;-73
2024/01/23 19:04:38;;;;;;;;;;;4.40;99.90;;;;;;5036768;28;19929;-73
2024/01/23 19:07:04;;;;;;;;;;;4.50;99.90;;;;;;5037647;28;19929;-73
2024/01/23 19:09:31;;;;;;;;;;;4.50;99.90;;;;;;5042538;28;19932;-75
2024/01/23 19:12:00;;;;;;;;;;;4.40;99.90;;;;;;5038264;28;19925;-75
2024/01/23 19:14:27;;;;;;;;;;;4.50;99.90;;;;;;5037048;28;19966;-74
2024/01/23 19:16:54;;;;;;;;;;;4.50;99.90;;;;;;5037002;28;19925;-76
2024/01/23 19:19:20;;;;;;;;;;;4.40;99.90;;;;;;5037492;28;20379;-74
2024/01/23 19:21:47;;;;;;;;;;;4.50;99.90;;;;;;5038851;28;19925;-75
2024/01/23 19:24:14;;;;;;;;;;;4.50;99.90;;;;;;5038575;28;19929;-75